Terminal Aerodrome Forecast
Issued by NWS

Home | Current Version | Previous Version | Text Only | Print | Product List | Glossary Off
Versions: 1 2 3 4 5 6 7 8 9 10 11 12 13 14 15 16 17 18 19 20

000
FTUS43 KICT 150528
TAFRSL
TAF
KRSL 150528Z 1506/1606 06007KT 3SM BR SCT004 OVC050
     FM151000 33015G25KT 6SM -RA BR SCT003 OVC015
     FM151500 33022G31KT P6SM SCT015
     FM152300 32015KT P6SM BKN100=

USA.gov is the U.S. government's official web portal to all federal, state and local government web resources and services.